createdAt,value
2023-05-06T00:01:45.201Z,100272.69
2023-05-06T00:04:12.623Z,100276.69
2023-05-06T00:06:41.758Z,100276.56
2023-05-06T00:09:09.411Z,100266.94
2023-05-06T00:11:36.992Z,100271.16
2023-05-06T00:14:06.050Z,100260.75
2023-05-06T00:16:33.645Z,100258.41
2023-05-06T00:19:01.388Z,100256.53
2023-05-06T00:21:28.829Z,100253.94
2023-05-06T00:23:56.440Z,100253.28
2023-05-06T00:26:23.844Z,100243.81
2023-05-06T00:28:51.238Z,100242.16
2023-05-06T00:31:19.943Z,100240.94
2023-05-06T00:33:47.338Z,100241.25
2023-05-06T00:36:14.820Z,100228.63
2023-05-06T00:38:42.261Z,100227.44
2023-05-06T00:41:09.850Z,100232.97
2023-05-06T00:43:37.268Z,100231.22
2023-05-06T00:46:05.421Z,100225.22
2023-05-06T00:48:34.218Z,100230.53
2023-05-06T00:51:01.684Z,100230.72
2023-05-06T00:53:29.101Z,100228.56
2023-05-06T00:55:56.953Z,100240.06
2023-05-06T00:58:24.354Z,100240.06
2023-05-06T01:00:52.201Z,100235.53
2023-05-06T01:03:19.858Z,100221.19
2023-05-06T01:05:56.069Z,100220.97
2023-05-06T01:08:30.518Z,100222.94
2023-05-06T01:11:03.260Z,100215.91
2023-05-06T01:13:36.369Z,100216.81
2023-05-06T01:16:05.839Z,100208.63
2023-05-06T01:18:33.985Z,100206.34
2023-05-06T01:21:05.954Z,100197.09
2023-05-06T01:23:52.654Z,100212.94
2023-05-06T01:26:20.327Z,100214.03
2023-05-06T01:28:47.747Z,100219.44
2023-05-06T01:31:23.681Z,100225.94
2023-05-06T01:34:00.625Z,100228.25
2023-05-06T01:36:38.536Z,100228.28
2023-05-06T01:39:13.946Z,100225.88
2023-05-06T01:41:42.399Z,100224.25
2023-05-06T01:44:11.758Z,100222.63
2023-05-06T01:46:39.568Z,100231.59
2023-05-06T01:49:11.311Z,100222.97
2023-05-06T01:51:39.268Z,100234.88
2023-05-06T01:54:10.738Z,100228.88
2023-05-06T01:56:38.145Z,100222.63
2023-05-06T01:59:05.527Z,100221.34
2023-05-06T02:01:33.032Z,100224.38
2023-05-06T02:04:01.502Z,100224.16
2023-05-06T02:06:29.113Z,100219.13
2023-05-06T02:08:56.732Z,100207.97
2023-05-06T02:11:25.701Z,100205.50
2023-05-06T02:13:55.053Z,100208.53
2023-05-06T02:16:22.559Z,100207.31
2023-05-06T02:18:50.832Z,100190.56
2023-05-06T02:21:18.227Z,100191.66
2023-05-06T02:23:45.562Z,100193.78
2023-05-06T02:26:12.949Z,100190.81
2023-05-06T02:28:41.924Z,100186.81
2023-05-06T02:31:09.454Z,100186.00
2023-05-06T02:33:36.909Z,100171.69
2023-05-06T02:36:04.760Z,100173.16
2023-05-06T02:38:32.182Z,100176.78
2023-05-06T02:40:59.630Z,100184.25
2023-05-06T02:43:27.125Z,100176.66
2023-05-06T02:45:55.884Z,100168.03
2023-05-06T02:48:23.661Z,100170.91
2023-05-06T02:50:52.550Z,100160.84
2023-05-06T02:53:19.939Z,100158.72
2023-05-06T02:55:47.372Z,100154.44
2023-05-06T02:58:14.782Z,100155.31
2023-05-06T03:00:42.203Z,100155.91
2023-05-06T03:03:11.284Z,100154.28
2023-05-06T03:05:38.730Z,100160.34
2023-05-06T03:08:06.800Z,100156.91
2023-05-06T03:10:34.273Z,100157.44
2023-05-06T03:13:01.768Z,100166.72
2023-05-06T03:15:29.177Z,100168.59
2023-05-06T03:17:56.563Z,100170.31
2023-05-06T03:20:25.254Z,100167.81
2023-05-06T03:22:53.650Z,100172.88
2023-05-06T03:25:21.096Z,100169.16
2023-05-06T03:27:48.491Z,100171.69
2023-05-06T03:30:15.928Z,100175.75
2023-05-06T03:32:43.689Z,100173.72
2023-05-06T03:35:11.512Z,100172.25
2023-05-06T03:37:40.534Z,100179.56
2023-05-06T03:40:09.520Z,100169.50
2023-05-06T03:42:36.928Z,100168.09
2023-05-06T03:45:04.940Z,100177.16
2023-05-06T03:47:32.396Z,100177.34
2023-05-06T03:50:00.199Z,100180.53
2023-05-06T03:52:27.691Z,100173.84
2023-05-06T03:54:56.356Z,100167.31
2023-05-06T03:57:23.759Z,100172.38
2023-05-06T03:59:51.219Z,100165.94
2023-05-06T04:02:18.671Z,100175.13
2023-05-06T04:04:46.087Z,100174.03
2023-05-06T04:07:13.459Z,100169.81
2023-05-06T04:09:40.899Z,100166.53
2023-05-06T04:12:09.592Z,100164.34
2023-05-06T04:14:37.047Z,100174.22
2023-05-06T04:17:04.407Z,100174.94
2023-05-06T04:19:32.076Z,100180.72
2023-05-06T04:21:59.455Z,100185.06
2023-05-06T04:24:28.286Z,100187.34
2023-05-06T04:26:56.674Z,100187.81
2023-05-06T04:29:26.245Z,100191.28
2023-05-06T04:31:54.224Z,100200.97
2023-05-06T04:34:21.823Z,100197.19
2023-05-06T04:36:49.479Z,100194.91
2023-05-06T04:39:18.094Z,100202.19
2023-05-06T04:41:46.068Z,100189.94
2023-05-06T04:44:13.979Z,100198.16
2023-05-06T04:46:42.677Z,100199.91
2023-05-06T04:49:11.374Z,100204.00
2023-05-06T04:51:39.851Z,100214.34
2023-05-06T04:54:07.221Z,100210.88
2023-05-06T04:56:34.963Z,100206.28
2023-05-06T04:59:02.657Z,100220.84
2023-05-06T05:01:30.092Z,100219.28
2023-05-06T05:03:58.892Z,100207.28
2023-05-06T05:06:26.282Z,100213.22
2023-05-06T05:08:55.331Z,100208.59
2023-05-06T05:11:22.926Z,100222.94
2023-05-06T05:13:50.313Z,100215.44
2023-05-06T05:16:17.908Z,100213.97
2023-05-06T05:18:45.323Z,100212.59
2023-05-06T05:21:14.042Z,100213.81
2023-05-06T05:23:41.448Z,100212.56
2023-05-06T05:26:08.853Z,100213.59
2023-05-06T05:28:36.238Z,100221.53
2023-05-06T05:31:04.422Z,100215.31
2023-05-06T05:33:32.070Z,100233.91
2023-05-06T05:35:59.538Z,100231.72
2023-05-06T05:38:28.303Z,100228.91
2023-05-06T05:40:55.670Z,100218.84
2023-05-06T05:43:25.877Z,100228.03
2023-05-06T05:45:53.487Z,100231.25
2023-05-06T05:48:20.940Z,100231.38
2023-05-06T05:50:48.306Z,100226.50
2023-05-06T05:53:15.730Z,100231.84
2023-05-06T05:55:44.461Z,100231.34
2023-05-06T05:58:11.963Z,100228.44
2023-05-06T06:00:39.380Z,100224.91
2023-05-06T06:03:07.082Z,100234.91
2023-05-06T06:05:34.566Z,100227.50
2023-05-06T06:08:03.768Z,100234.13
2023-05-06T06:10:31.491Z,100234.06
2023-05-06T06:13:00.332Z,100246.69
2023-05-06T06:15:27.753Z,100239.16
2023-05-06T06:17:55.637Z,100243.06
2023-05-06T06:20:23.046Z,100251.63
2023-05-06T06:22:50.529Z,100250.13
2023-05-06T06:25:17.909Z,100247.84
2023-05-06T06:27:45.291Z,100257.13
2023-05-06T06:30:14.443Z,100256.66
2023-05-06T06:32:48.540Z,100251.84
2023-05-06T06:35:20.304Z,100260.63
2023-05-06T06:37:47.862Z,100261.56
2023-05-06T06:40:15.666Z,100267.28
2023-05-06T06:42:43.144Z,100265.59
2023-05-06T06:45:11.740Z,100264.50
2023-05-06T06:47:41.271Z,100260.75
2023-05-06T06:50:10.014Z,100262.81
2023-05-06T06:52:37.454Z,100260.06
2023-05-06T06:55:05.582Z,100262.72
2023-05-06T06:57:33.383Z,100265.59
2023-05-06T07:00:00.997Z,100262.22
2023-05-06T07:02:28.783Z,100262.59
2023-05-06T07:04:57.497Z,100265.00
2023-05-06T07:07:25.087Z,100266.22
2023-05-06T07:09:52.522Z,100265.13
2023-05-06T07:12:19.903Z,100272.81
2023-05-06T07:14:47.352Z,100275.97
2023-05-06T07:17:14.798Z,100279.03
2023-05-06T07:19:42.217Z,100280.84
2023-05-06T07:22:10.962Z,100269.22
2023-05-06T07:24:38.422Z,100276.78
2023-05-06T07:27:05.865Z,100286.75
2023-05-06T07:29:34.854Z,100283.03
2023-05-06T07:32:02.227Z,100286.22
2023-05-06T07:34:29.629Z,100284.47
2023-05-06T07:36:57.253Z,100286.69
2023-05-06T07:39:26.020Z,100287.41
2023-05-06T07:41:53.375Z,100284.59
2023-05-06T07:44:20.752Z,100290.03
2023-05-06T07:46:48.307Z,100300.00
2023-05-06T07:49:15.792Z,100299.22
2023-05-06T07:51:43.469Z,100289.59
2023-05-06T07:54:11.166Z,100308.69
2023-05-06T07:56:39.857Z,100293.13
2023-05-06T07:59:07.315Z,100300.44
2023-05-06T08:01:34.686Z,100310.28
2023-05-06T08:04:02.232Z,100315.63
2023-05-06T08:06:29.714Z,100316.19
2023-05-06T08:08:57.117Z,100316.19
2023-05-06T08:11:24.543Z,100316.41
2023-05-06T08:13:53.347Z,100329.16
2023-05-06T08:16:22.546Z,100325.13
2023-05-06T08:18:51.139Z,100337.78
2023-05-06T08:21:18.556Z,100333.84
2023-05-06T08:23:46.295Z,100339.50
2023-05-06T08:26:14.264Z,100336.97
2023-05-06T08:28:41.726Z,100341.63
2023-05-06T08:31:10.491Z,100342.94
2023-05-06T08:33:37.986Z,100345.44
2023-05-06T08:36:05.720Z,100352.47
2023-05-06T08:38:33.113Z,100353.66
2023-05-06T08:41:08.650Z,100360.19
2023-05-06T08:43:41.120Z,100368.19
2023-05-06T08:46:10.025Z,100362.53
2023-05-06T08:48:37.834Z,100367.88
2023-05-06T08:51:06.149Z,100368.59
2023-05-06T08:53:34.238Z,100374.66
2023-05-06T08:56:04.650Z,100371.28
2023-05-06T08:58:35.906Z,100365.38
2023-05-06T09:01:04.443Z,100373.31
2023-05-06T09:03:33.338Z,100366.28
2023-05-06T09:06:00.907Z,100369.34
2023-05-06T09:08:28.458Z,100373.22
2023-05-06T09:10:55.855Z,100376.00
2023-05-06T09:13:23.302Z,100383.63
2023-05-06T09:15:54.068Z,100376.84
2023-05-06T09:18:21.529Z,100382.69
2023-05-06T09:20:50.958Z,100378.53
2023-05-06T09:23:19.496Z,100378.63
2023-05-06T09:25:49.615Z,100381.41
2023-05-06T09:28:17.074Z,100386.03
2023-05-06T09:30:47.437Z,100387.34
2023-05-06T09:33:14.992Z,100392.88
2023-05-06T09:35:44.431Z,100389.19
2023-05-06T09:38:13.148Z,100393.22
2023-05-06T09:40:40.788Z,100387.81
2023-05-06T09:43:08.887Z,100382.78
2023-05-06T09:45:36.930Z,100386.41
2023-05-06T09:48:05.224Z,100395.56
2023-05-06T09:50:33.561Z,100401.78
2023-05-06T09:53:03.605Z,100399.78
2023-05-06T09:55:33.875Z,100394.81
2023-05-06T09:58:02.328Z,100406.59
2023-05-06T10:00:31.631Z,100406.16
2023-05-06T10:03:00.268Z,100410.72
2023-05-06T10:05:29.907Z,100400.38
2023-05-06T10:07:58.192Z,100410.91
2023-05-06T10:10:27.716Z,100412.50
2023-05-06T10:12:56.587Z,100404.72
2023-05-06T10:15:26.457Z,100407.94
2023-05-06T10:17:55.324Z,100406.88
2023-05-06T10:20:25.613Z,100408.53
2023-05-06T10:23:03.345Z,100399.75
2023-05-06T10:25:36.985Z,100403.63
2023-05-06T10:28:09.792Z,100398.56
2023-05-06T10:30:45.912Z,100403.69
2023-05-06T10:33:16.341Z,100403.25
2023-05-06T10:35:50.754Z,100402.16
2023-05-06T10:38:24.147Z,100407.78
2023-05-06T10:40:53.273Z,100406.22
2023-05-06T10:43:24.627Z,100414.91
2023-05-06T10:46:08.203Z,100408.81
2023-05-06T10:48:37.686Z,100413.97
2023-05-06T10:51:25.079Z,100416.28
2023-05-06T10:54:02.242Z,100417.03
2023-05-06T10:56:31.490Z,100417.66
2023-05-06T10:59:02.675Z,100409.94
2023-05-06T11:01:30.162Z,100414.97
2023-05-06T11:03:57.812Z,100408.22
2023-05-06T11:06:36.030Z,100415.09
2023-05-06T11:09:05.111Z,100414.28
2023-05-06T11:11:48.467Z,100418.47
2023-05-06T11:14:26.336Z,100424.13
2023-05-06T11:16:54.910Z,100426.84
2023-05-06T11:19:23.692Z,100418.88
2023-05-06T11:21:51.657Z,100424.41
2023-05-06T11:24:27.098Z,100419.59
2023-05-06T11:26:55.523Z,100432.09
2023-05-06T11:29:24.621Z,100435.16
2023-05-06T11:31:53.972Z,100434.44
2023-05-06T11:34:27.226Z,100434.72
2023-05-06T11:37:02.075Z,100432.63
2023-05-06T11:39:31.264Z,100439.34
2023-05-06T11:42:00.077Z,100436.19
2023-05-06T11:44:31.278Z,100451.63
2023-05-06T11:47:05.586Z,100446.31
2023-05-06T11:49:39.269Z,100440.50
2023-05-06T11:52:06.852Z,100440.47
2023-05-06T11:54:36.103Z,100452.50
2023-05-06T11:57:03.556Z,100447.88
2023-05-06T11:59:33.908Z,100447.00
2023-05-06T12:02:03.365Z,100448.81
2023-05-06T12:04:38.661Z,100451.66
2023-05-06T12:07:07.505Z,100450.78
2023-05-06T12:09:36.025Z,100445.34
2023-05-06T12:12:04.651Z,100451.19
2023-05-06T12:14:37.071Z,100447.44
2023-05-06T12:17:05.090Z,100454.38
2023-05-06T12:19:33.260Z,100452.56
2023-05-06T12:22:17.936Z,100457.22
2023-05-06T12:24:45.404Z,100454.75
2023-05-06T12:27:13.158Z,100461.63
2023-05-06T12:29:52.679Z,100463.31
2023-05-06T12:32:20.128Z,100456.06
2023-05-06T12:34:47.499Z,100468.84
2023-05-06T12:37:25.920Z,100480.13
2023-05-06T12:39:53.420Z,100467.03
2023-05-06T12:42:23.352Z,100466.88
2023-05-06T12:44:52.156Z,100469.06
2023-05-06T12:47:20.997Z,100458.47
2023-05-06T12:49:49.687Z,100475.47
2023-05-06T12:52:17.959Z,100473.34
2023-05-06T12:54:47.474Z,100465.72
2023-05-06T12:57:15.305Z,100473.34
2023-05-06T12:59:44.466Z,100458.75
2023-05-06T13:02:13.718Z,100468.59
2023-05-06T13:04:41.884Z,100468.66
2023-05-06T13:07:09.269Z,100474.44
2023-05-06T13:09:36.730Z,100471.38
2023-05-06T13:12:04.998Z,100469.06
2023-05-06T13:14:32.383Z,100469.13
2023-05-06T13:17:04.567Z,100465.97
2023-05-06T13:19:33.659Z,100472.19
2023-05-06T13:22:01.470Z,100467.19
2023-05-06T13:24:29.271Z,100470.50
2023-05-06T13:26:57.234Z,100461.91
2023-05-06T13:29:25.179Z,100470.06
2023-05-06T13:31:52.609Z,100472.16
2023-05-06T13:34:20.020Z,100483.13
2023-05-06T13:36:49.688Z,100482.63
2023-05-06T13:39:17.221Z,100480.56
2023-05-06T13:41:47.377Z,100489.25
2023-05-06T13:44:14.988Z,100478.38
2023-05-06T13:46:44.134Z,100485.63
2023-05-06T13:49:13.533Z,100492.06
2023-05-06T13:51:41.081Z,100486.69
2023-05-06T13:54:10.083Z,100493.81
2023-05-06T13:56:37.581Z,100498.16
2023-05-06T13:59:05.211Z,100491.34
2023-05-06T14:01:32.633Z,100471.69
2023-05-06T14:04:00.142Z,100481.31
2023-05-06T14:06:27.720Z,100487.53
2023-05-06T14:08:55.678Z,100493.25
2023-05-06T14:11:24.395Z,100491.31
2023-05-06T14:13:51.799Z,100496.34
2023-05-06T14:16:19.288Z,100487.56
2023-05-06T14:18:46.706Z,100492.31
2023-05-06T14:21:14.109Z,100488.59
2023-05-06T14:23:41.560Z,100483.81
2023-05-06T14:26:08.932Z,100491.91
2023-05-06T14:28:37.670Z,100495.56
2023-05-06T14:31:05.533Z,100492.88
2023-05-06T14:33:32.975Z,100500.88
2023-05-06T14:36:03.197Z,100515.25
2023-05-06T14:38:33.638Z,100507.31
2023-05-06T14:41:01.023Z,100517.16
2023-05-06T14:43:28.404Z,100508.34
2023-05-06T14:45:57.225Z,100507.25
2023-05-06T14:48:25.442Z,100511.16
2023-05-06T14:50:53.066Z,100513.28
2023-05-06T14:53:20.448Z,100505.31
2023-05-06T14:55:48.768Z,100513.16
2023-05-06T14:58:16.197Z,100516.47
2023-05-06T15:00:43.614Z,100512.28
2023-05-06T15:03:12.333Z,100519.06
2023-05-06T15:05:39.787Z,100517.56
2023-05-06T15:08:07.302Z,100526.50
2023-05-06T15:10:34.688Z,100520.41
2023-05-06T15:13:02.221Z,100519.47
2023-05-06T15:15:30.048Z,100530.13
2023-05-06T15:17:57.443Z,100535.47
2023-05-06T15:20:26.222Z,100530.13
2023-05-06T15:22:53.923Z,100520.16
2023-05-06T15:25:34.086Z,100523.72
2023-05-06T15:28:02.744Z,100526.41
2023-05-06T15:30:30.179Z,100529.94
2023-05-06T15:32:57.609Z,100538.09
2023-05-06T15:35:27.178Z,100536.84
2023-05-06T15:37:58.430Z,100540.53
2023-05-06T15:40:26.467Z,100535.31
2023-05-06T15:42:53.919Z,100537.53
2023-05-06T15:45:21.957Z,100536.41
2023-05-06T15:47:49.433Z,100538.25
2023-05-06T15:50:31.904Z,100537.72
2023-05-06T15:53:02.630Z,100529.78
2023-05-06T15:55:35.326Z,100527.75
2023-05-06T15:58:11.114Z,100527.28
2023-05-06T16:00:38.588Z,100518.78
2023-05-06T16:03:08.089Z,100529.66
2023-05-06T16:05:37.454Z,100524.47
2023-05-06T16:08:06.742Z,100525.59
2023-05-06T16:10:35.405Z,100532.56
2023-05-06T16:13:02.822Z,100542.19
2023-05-06T16:15:30.300Z,100542.59
2023-05-06T16:17:57.697Z,100536.91
2023-05-06T16:20:25.317Z,100535.13
2023-05-06T16:22:56.612Z,100534.84
2023-05-06T16:25:25.344Z,100539.28
2023-05-06T16:27:53.448Z,100545.81
2023-05-06T16:30:20.994Z,100550.72
2023-05-06T16:32:48.507Z,100544.97
2023-05-06T16:35:17.488Z,100542.66
2023-05-06T16:37:45.449Z,100536.38
2023-05-06T16:40:14.412Z,100544.97
2023-05-06T16:42:43.113Z,100542.75
2023-05-06T16:45:11.461Z,100541.44
2023-05-06T16:47:38.997Z,100540.09
2023-05-06T16:50:07.833Z,100550.78
2023-05-06T16:52:35.781Z,100546.75
2023-05-06T16:55:03.556Z,100552.03
2023-05-06T16:57:31.122Z,100544.88
2023-05-06T17:00:00.200Z,100546.97
2023-05-06T17:02:27.694Z,100551.94
2023-05-06T17:04:55.251Z,100550.53
2023-05-06T17:07:22.678Z,100550.84
2023-05-06T17:09:51.595Z,100549.00
2023-05-06T17:12:20.469Z,100545.22
2023-05-06T17:14:47.818Z,100552.22
2023-05-06T17:17:16.560Z,100548.09
2023-05-06T17:19:44.078Z,100552.56
2023-05-06T17:22:11.626Z,100549.31
2023-05-06T17:24:39.010Z,100554.09
2023-05-06T17:27:06.732Z,100552.22
2023-05-06T17:29:37.590Z,100554.13
2023-05-06T17:32:06.227Z,100561.94
2023-05-06T17:34:35.571Z,100560.44
2023-05-06T17:37:04.409Z,100564.59
2023-05-06T17:39:32.966Z,100563.50
2023-05-06T17:42:01.570Z,100564.19
2023-05-06T17:44:29.200Z,100566.81
2023-05-06T17:46:56.928Z,100564.75
2023-05-06T17:49:24.448Z,100565.81
2023-05-06T17:51:53.181Z,100576.16
2023-05-06T17:54:20.605Z,100578.59
2023-05-06T17:56:50.463Z,100574.63
2023-05-06T17:59:19.623Z,100574.63
2023-05-06T18:01:47.192Z,100587.22
2023-05-06T18:04:14.757Z,100590.63
2023-05-06T18:06:42.796Z,100595.53
2023-05-06T18:09:11.577Z,100593.53
2023-05-06T18:11:40.358Z,100591.31
2023-05-06T18:14:08.065Z,100598.09
2023-05-06T18:16:35.616Z,100607.19
2023-05-06T18:19:04.950Z,100607.19
2023-05-06T18:21:33.892Z,100611.63
2023-05-06T18:24:10.400Z,100604.88
2023-05-06T18:26:46.041Z,100607.06
2023-05-06T18:29:13.949Z,100602.53
2023-05-06T18:31:41.455Z,100614.22
2023-05-06T18:34:08.874Z,100617.34
2023-05-06T18:36:36.480Z,100631.72
2023-05-06T18:39:04.460Z,100623.28
2023-05-06T18:41:31.816Z,100631.34
2023-05-06T18:44:02.721Z,100627.97
2023-05-06T18:46:30.077Z,100635.34
2023-05-06T18:48:59.008Z,100638.13
2023-05-06T18:51:27.418Z,100647.38
2023-05-06T18:53:55.971Z,100640.09
2023-05-06T18:56:23.384Z,100637.06
2023-05-06T18:58:51.026Z,100639.06
2023-05-06T19:01:19.752Z,100636.00
2023-05-06T19:03:47.184Z,100646.06
2023-05-06T19:06:14.787Z,100646.47
2023-05-06T19:08:42.230Z,100639.03
2023-05-06T19:11:15.467Z,100648.91
2023-05-06T19:13:42.950Z,100657.22
2023-05-06T19:16:10.609Z,100648.72
2023-05-06T19:18:39.390Z,100656.03
2023-05-06T19:21:06.864Z,100661.97
2023-05-06T19:23:34.228Z,100653.19
2023-05-06T19:26:01.620Z,100660.84
2023-05-06T19:28:29.257Z,100660.50
2023-05-06T19:30:56.683Z,100663.28
2023-05-06T19:33:24.101Z,100666.25
2023-05-06T19:35:52.980Z,100663.50
2023-05-06T19:38:21.254Z,100661.47
2023-05-06T19:40:48.901Z,100668.00
2023-05-06T19:43:16.592Z,100672.25
2023-05-06T19:45:44.065Z,100673.81
2023-05-06T19:48:12.774Z,100671.75
2023-05-06T19:50:40.165Z,100678.44
2023-05-06T19:53:08.914Z,100673.97
2023-05-06T19:55:37.380Z,100682.81
2023-05-06T19:58:04.753Z,100675.94
2023-05-06T20:00:32.190Z,100671.00
2023-05-06T20:03:00.924Z,100670.03
2023-05-06T20:05:32.617Z,100666.75
2023-05-06T20:08:00.427Z,100664.56
2023-05-06T20:10:30.217Z,100665.22
2023-05-06T20:12:57.987Z,100664.25
2023-05-06T20:15:26.471Z,100663.28
2023-05-06T20:17:54.011Z,100668.59
2023-05-06T20:20:21.750Z,100669.22
2023-05-06T20:22:49.139Z,100663.28
2023-05-06T20:25:18.527Z,100660.03
2023-05-06T20:27:47.363Z,100671.81
2023-05-06T20:30:15.000Z,100670.16
2023-05-06T20:32:42.451Z,100672.91
2023-05-06T20:35:10.321Z,100679.16
2023-05-06T20:37:38.112Z,100673.47
2023-05-06T20:40:07.738Z,100675.53
2023-05-06T20:42:35.334Z,100671.25
2023-05-06T20:45:05.031Z,100668.97
2023-05-06T20:47:32.507Z,100680.63
2023-05-06T20:49:59.923Z,100681.28
2023-05-06T20:52:27.366Z,100679.72
2023-05-06T20:54:54.761Z,100680.72
2023-05-06T20:57:24.548Z,100682.84
2023-05-06T20:59:52.355Z,100691.09
2023-05-06T21:02:21.191Z,100693.13
2023-05-06T21:04:48.640Z,100688.91
2023-05-06T21:07:16.020Z,100691.56
2023-05-06T21:09:43.371Z,100698.41
2023-05-06T21:12:10.881Z,100700.84
2023-05-06T21:14:38.260Z,100704.06
2023-05-06T21:17:05.703Z,100698.81
2023-05-06T21:19:37.538Z,100701.22
2023-05-06T21:22:04.916Z,100702.16
2023-05-06T21:24:32.298Z,100699.22
2023-05-06T21:27:00.250Z,100699.19
2023-05-06T21:29:27.617Z,100694.72
2023-05-06T21:31:55.344Z,100702.09
2023-05-06T21:34:22.713Z,100700.19
2023-05-06T21:36:51.410Z,100700.91
2023-05-06T21:39:18.792Z,100710.09
2023-05-06T21:41:46.170Z,100700.38
2023-05-06T21:44:13.568Z,100705.16
2023-05-06T21:46:41.564Z,100702.28
2023-05-06T21:49:09.002Z,100711.06
2023-05-06T21:51:36.974Z,100713.16
2023-05-06T21:54:05.715Z,100713.16
2023-05-06T21:56:33.132Z,100715.75
2023-05-06T21:59:00.827Z,100716.16
2023-05-06T22:01:28.988Z,100718.31
2023-05-06T22:03:56.638Z,100709.19
2023-05-06T22:06:24.241Z,100718.00
2023-05-06T22:08:51.993Z,100697.69
2023-05-06T22:11:22.621Z,100706.25
2023-05-06T22:13:50.199Z,100704.88
2023-05-06T22:16:17.866Z,100716.16
2023-05-06T22:18:45.334Z,100710.41
2023-05-06T22:21:12.751Z,100719.38
2023-05-06T22:23:40.630Z,100718.56
2023-05-06T22:26:08.096Z,100718.31
2023-05-06T22:28:36.806Z,100714.13
2023-05-06T22:31:06.935Z,100702.56
2023-05-06T22:33:34.373Z,100722.03
2023-05-06T22:36:01.864Z,100704.72
2023-05-06T22:38:31.193Z,100717.06
2023-05-06T22:40:58.925Z,100712.28
2023-05-06T22:43:26.303Z,100717.66
2023-05-06T22:45:55.016Z,100711.81
2023-05-06T22:48:22.498Z,100721.81
2023-05-06T22:50:49.964Z,100719.38
2023-05-06T22:53:17.318Z,100721.94
2023-05-06T22:55:45.335Z,100724.47
2023-05-06T22:58:12.790Z,100724.28
2023-05-06T23:00:40.998Z,100724.06
2023-05-06T23:03:10.153Z,100725.88
2023-05-06T23:05:37.600Z,100725.78
2023-05-06T23:08:05.271Z,100716.81
2023-05-06T23:10:32.690Z,100717.31
2023-05-06T23:13:01.494Z,100720.94
2023-05-06T23:15:29.384Z,100720.09
2023-05-06T23:17:56.898Z,100719.28
2023-05-06T23:20:25.659Z,100717.94
2023-05-06T23:22:53.209Z,100721.75
2023-05-06T23:25:21.045Z,100720.63
2023-05-06T23:27:48.455Z,100713.53
2023-05-06T23:30:16.037Z,100722.06
2023-05-06T23:32:43.514Z,100717.94
2023-05-06T23:35:11.160Z,100718.59
2023-05-06T23:37:40.196Z,100714.69
2023-05-06T23:40:08.734Z,100729.09
2023-05-06T23:42:36.101Z,100723.84
2023-05-06T23:45:03.483Z,100730.41
2023-05-06T23:47:30.896Z,100731.88
2023-05-06T23:49:58.770Z,100722.69
2023-05-06T23:52:26.747Z,100732.03
2023-05-06T23:54:55.534Z,100738.97
2023-05-06T23:57:22.935Z,100740.47
2023-05-06T23:59:50.633Z,100741.22
